createdAt,value
2019-05-25T00:00:25.153Z,82.05
2019-05-25T00:01:25.115Z,82.36
2019-05-25T00:02:25.109Z,82.29
2019-05-25T00:03:25.096Z,82.56
2019-05-25T00:04:25.086Z,82.36
2019-05-25T00:05:25.098Z,82.81
2019-05-25T00:06:25.066Z,83.11
2019-05-25T00:07:25.055Z,82.91
2019-05-25T00:08:25.043Z,82.95
2019-05-25T00:09:25.033Z,83.87
2019-05-25T00:10:25.099Z,83.52
2019-05-25T00:11:25.014Z,83.73
2019-05-25T00:12:24.995Z,83.66
2019-05-25T00:13:25.026Z,83.83
2019-05-25T00:14:24.974Z,83.73
2019-05-25T00:15:24.990Z,83.52
2019-05-25T00:16:24.955Z,83.62
2019-05-25T00:17:24.943Z,83.46
2019-05-25T00:18:24.936Z,83.76
2019-05-25T00:19:24.928Z,83.56
2019-05-25T00:20:24.940Z,83.56
2019-05-25T00:21:24.910Z,84.17
2019-05-25T00:22:24.895Z,84.07
2019-05-25T00:23:24.880Z,84.28
2019-05-25T00:24:24.874Z,84.07
2019-05-25T00:25:24.892Z,84.48
2019-05-25T00:26:24.854Z,84.63
2019-05-25T00:27:24.839Z,84.83
2019-05-25T00:28:24.830Z,85.24
2019-05-25T00:29:24.821Z,85.03
2019-05-25T00:30:24.932Z,85.03
2019-05-25T00:31:24.795Z,85.34
2019-05-25T00:32:24.786Z,85.44
2019-05-25T00:33:24.776Z,85.10
2019-05-25T00:34:24.778Z,85.44
2019-05-25T00:35:24.805Z,85.50
2019-05-25T00:36:24.746Z,85.64
2019-05-25T00:37:24.732Z,85.24
2019-05-25T00:38:24.723Z,85.24
2019-05-25T00:39:24.707Z,85.75
2019-05-25T00:40:24.702Z,85.55
2019-05-25T00:41:24.715Z,85.79
2019-05-25T00:42:24.677Z,85.69
2019-05-25T00:43:24.671Z,86.10
2019-05-25T00:44:24.663Z,85.89
2019-05-25T00:45:24.644Z,86.71
2019-05-25T00:46:24.658Z,86.81
2019-05-25T00:47:24.633Z,86.51
2019-05-25T00:48:24.608Z,86.30
2019-05-25T00:49:24.598Z,86.44
2019-05-25T00:50:24.600Z,87.22
2019-05-25T00:51:24.606Z,86.61
2019-05-25T00:52:24.569Z,87.02
2019-05-25T00:53:24.554Z,87.57
2019-05-25T00:54:28.031Z,87.47
2019-05-25T00:55:24.532Z,87.47
2019-05-25T00:56:24.547Z,87.32
2019-05-25T00:57:24.510Z,87.37
2019-05-25T00:58:24.500Z,87.53
2019-05-25T00:59:24.492Z,87.67
2019-05-25T01:00:24.478Z,88.08
2019-05-25T01:01:24.637Z,88.08
2019-05-25T01:02:24.458Z,88.08
2019-05-25T01:03:24.447Z,88.08
2019-05-25T01:04:24.444Z,87.88
2019-05-25T01:05:24.434Z,88.29
2019-05-25T01:06:24.441Z,87.77
2019-05-25T01:07:24.403Z,88.18
2019-05-25T01:08:24.400Z,88.39
2019-05-25T01:09:24.381Z,88.64
2019-05-25T01:10:24.370Z,88.53
2019-05-25T01:11:24.390Z,88.80
2019-05-25T01:12:24.352Z,88.84
2019-05-25T01:13:24.342Z,88.94
2019-05-25T01:14:24.329Z,89.97
2019-05-25T01:15:24.319Z,89.66
2019-05-25T01:16:24.333Z,89.76
2019-05-25T01:17:24.293Z,89.76
2019-05-25T01:18:24.280Z,89.66
2019-05-25T01:19:24.272Z,89.56
2019-05-25T01:20:24.259Z,89.45
2019-05-25T01:21:24.276Z,90.37
2019-05-25T01:22:24.242Z,90.07
2019-05-25T01:23:24.228Z,90.28
2019-05-25T01:24:24.216Z,90.37
2019-05-25T01:25:24.215Z,90.07
2019-05-25T01:26:24.218Z,90.07
2019-05-25T01:27:24.189Z,90.17
2019-05-25T01:28:24.180Z,90.07
2019-05-25T01:29:24.159Z,89.56
2019-05-25T01:30:24.147Z,90.11
2019-05-25T01:31:24.172Z,90.42
2019-05-25T01:32:24.132Z,90.62
2019-05-25T01:33:24.116Z,90.73
2019-05-25T01:34:24.112Z,91.03
2019-05-25T01:35:24.095Z,91.35
2019-05-25T01:36:24.115Z,91.03
2019-05-25T01:37:24.080Z,91.14
2019-05-25T01:38:24.067Z,91.35
2019-05-25T01:39:24.052Z,91.65
2019-05-25T01:40:24.047Z,91.96
2019-05-25T01:41:24.056Z,92.10
2019-05-25T01:42:24.019Z,91.55
2019-05-25T01:43:24.012Z,91.59
2019-05-25T01:44:24.007Z,91.44
2019-05-25T01:45:23.983Z,92.10
2019-05-25T01:46:24.004Z,91.38
2019-05-25T01:47:23.964Z,92.31
2019-05-25T01:48:23.952Z,92.06
2019-05-25T01:49:23.945Z,92.51
2019-05-25T01:50:23.929Z,92.10
2019-05-25T01:51:23.955Z,92.21
2019-05-25T01:52:23.912Z,92.61
2019-05-25T01:53:23.897Z,92.31
2019-05-25T01:54:23.884Z,92.82
2019-05-25T01:55:23.879Z,92.51
2019-05-25T01:56:23.898Z,92.72
2019-05-25T01:57:23.856Z,92.51
2019-05-25T01:58:23.843Z,92.41
2019-05-25T01:59:23.831Z,92.61
2019-05-25T02:00:23.821Z,92.51
2019-05-25T02:01:23.838Z,92.31
2019-05-25T02:02:23.801Z,92.97
2019-05-25T02:03:23.789Z,92.21
2019-05-25T02:04:23.775Z,92.41
2019-05-25T02:05:23.767Z,92.41
2019-05-25T02:06:23.794Z,92.61
2019-05-25T02:07:23.745Z,92.21
2019-05-25T02:08:23.734Z,92.21
2019-05-25T02:09:23.719Z,92.41
2019-05-25T02:10:23.712Z,92.72
2019-05-25T02:11:23.732Z,92.21
2019-05-25T02:12:23.697Z,92.93
2019-05-25T02:13:23.679Z,93.33
2019-05-25T02:14:23.675Z,92.82
2019-05-25T02:15:23.659Z,93.07
2019-05-25T02:16:23.674Z,92.76
2019-05-25T02:17:23.644Z,92.97
2019-05-25T02:18:23.630Z,92.72
2019-05-25T02:19:23.619Z,92.82
2019-05-25T02:20:23.602Z,93.07
2019-05-25T02:21:23.623Z,93.13
2019-05-25T02:22:23.584Z,92.93
2019-05-25T02:23:23.572Z,93.27
2019-05-25T02:24:23.566Z,92.76
2019-05-25T02:25:23.558Z,93.02
2019-05-25T02:26:23.568Z,93.54
2019-05-25T02:27:23.529Z,93.38
2019-05-25T02:28:23.519Z,93.85
2019-05-25T02:29:23.510Z,93.59
2019-05-25T02:30:23.498Z,93.85
2019-05-25T02:31:23.514Z,93.68
2019-05-25T02:32:23.471Z,93.38
2019-05-25T02:33:23.474Z,93.59
2019-05-25T02:34:23.455Z,93.48
2019-05-25T02:35:23.441Z,93.59
2019-05-25T02:36:23.455Z,93.59
2019-05-25T02:37:23.420Z,93.79
2019-05-25T02:38:23.409Z,93.79
2019-05-25T02:39:23.402Z,94.10
2019-05-25T02:40:23.389Z,93.99
2019-05-25T02:41:23.399Z,94.40
2019-05-25T02:42:23.363Z,94.10
2019-05-25T02:43:23.357Z,93.89
2019-05-25T02:44:23.342Z,93.95
2019-05-25T02:45:23.333Z,93.59
2019-05-25T02:46:23.350Z,93.79
2019-05-25T02:47:23.323Z,93.54
2019-05-25T02:48:23.301Z,93.38
2019-05-25T02:49:23.287Z,93.17
2019-05-25T02:50:23.279Z,93.68
2019-05-25T02:51:23.297Z,93.68
2019-05-25T02:52:23.259Z,93.54
2019-05-25T02:53:23.248Z,93.54
2019-05-25T02:54:23.236Z,93.68
2019-05-25T02:55:33.962Z,93.89
2019-05-25T02:56:24.236Z,93.59
2019-05-25T02:57:23.205Z,93.38
2019-05-25T02:58:23.193Z,93.59
2019-05-25T02:59:23.181Z,93.79
2019-05-25T03:00:23.166Z,93.99
2019-05-25T03:01:23.184Z,93.83
2019-05-25T03:02:23.151Z,94.14
2019-05-25T03:03:23.138Z,94.34
2019-05-25T03:04:23.125Z,94.65
2019-05-25T03:05:23.111Z,95.27
2019-05-25T03:06:23.135Z,95.17
2019-05-25T03:07:23.101Z,95.06
2019-05-25T03:08:23.080Z,94.55
2019-05-25T03:09:23.072Z,95.31
2019-05-25T03:10:23.059Z,95.42
2019-05-25T03:11:23.076Z,95.42
2019-05-25T03:12:23.039Z,95.62
2019-05-25T03:13:23.035Z,95.52
2019-05-25T03:14:23.016Z,95.52
2019-05-25T03:15:23.008Z,95.52
2019-05-25T03:16:23.031Z,95.72
2019-05-25T03:17:22.987Z,96.03
2019-05-25T03:18:22.972Z,96.08
2019-05-25T03:19:22.964Z,96.44
2019-05-25T03:20:22.953Z,96.03
2019-05-25T03:21:22.941Z,95.93
2019-05-25T03:22:22.969Z,96.14
2019-05-25T03:23:22.920Z,95.62
2019-05-25T03:24:22.907Z,95.27
2019-05-25T03:25:22.902Z,95.47
2019-05-25T03:26:22.900Z,95.17
2019-05-25T03:27:22.904Z,95.06
2019-05-25T03:28:22.869Z,95.06
2019-05-25T03:29:22.861Z,94.65
2019-05-25T03:30:22.846Z,94.24
2019-05-25T03:31:22.836Z,94.71
2019-05-25T03:32:22.844Z,94.30
2019-05-25T03:33:22.818Z,94.40
2019-05-25T03:34:22.803Z,94.30
2019-05-25T03:35:22.792Z,94.30
2019-05-25T03:36:22.781Z,94.15
2019-05-25T03:37:22.807Z,93.85
2019-05-25T03:38:22.757Z,93.54
2019-05-25T03:39:22.748Z,93.33
2019-05-25T03:40:22.737Z,93.23
2019-05-25T03:41:22.729Z,93.23
2019-05-25T03:42:22.740Z,92.82
2019-05-25T03:43:22.703Z,92.16
2019-05-25T03:44:22.701Z,92.16
2019-05-25T03:45:22.684Z,92.16
2019-05-25T03:46:22.668Z,92.06
2019-05-25T03:47:22.687Z,92.27
2019-05-25T03:48:22.648Z,92.06
2019-05-25T03:49:22.634Z,92.36
2019-05-25T03:50:22.633Z,91.75
2019-05-25T03:51:22.616Z,92.06
2019-05-25T03:52:22.638Z,91.35
2019-05-25T03:53:22.591Z,91.86
2019-05-25T03:54:22.585Z,91.91
2019-05-25T03:55:22.575Z,92.36
2019-05-25T03:56:22.562Z,91.86
2019-05-25T03:57:22.583Z,91.86
2019-05-25T03:58:22.541Z,91.65
2019-05-25T03:59:22.531Z,91.40
2019-05-25T04:00:22.522Z,91.40
2019-05-25T04:01:22.510Z,91.71
2019-05-25T04:02:22.528Z,91.61
2019-05-25T04:03:22.485Z,92.06
2019-05-25T04:04:22.476Z,92.12
2019-05-25T04:05:22.463Z,91.71
2019-05-25T04:06:22.453Z,91.71
2019-05-25T04:07:22.472Z,91.91
2019-05-25T04:08:22.436Z,92.02
2019-05-25T04:09:22.425Z,90.99
2019-05-25T04:10:22.410Z,90.99
2019-05-25T04:11:22.401Z,90.54
2019-05-25T04:12:22.420Z,90.69
2019-05-25T04:13:22.391Z,90.44
2019-05-25T04:14:22.368Z,90.23
2019-05-25T04:15:22.362Z,90.23
2019-05-25T04:16:22.349Z,90.23
2019-05-25T04:17:22.364Z,90.13
2019-05-25T04:18:22.326Z,90.03
2019-05-25T04:19:22.323Z,90.03
2019-05-25T04:20:22.310Z,89.72
2019-05-25T04:21:22.295Z,90.23
2019-05-25T04:22:22.314Z,90.64
2019-05-25T04:23:22.276Z,90.54
2019-05-25T04:24:22.269Z,90.17
2019-05-25T04:25:22.261Z,90.58
2019-05-25T04:26:23.017Z,90.64
2019-05-25T04:27:22.264Z,90.34
2019-05-25T04:28:22.223Z,90.13
2019-05-25T04:29:22.212Z,90.54
2019-05-25T04:30:22.204Z,90.23
2019-05-25T04:31:22.211Z,90.37
2019-05-25T04:32:22.204Z,90.13
2019-05-25T04:33:22.196Z,90.44
2019-05-25T04:34:22.174Z,90.64
2019-05-25T04:35:22.147Z,90.13
2019-05-25T04:36:22.141Z,90.34
2019-05-25T04:37:22.152Z,90.64
2019-05-25T04:38:22.119Z,91.05
2019-05-25T04:39:22.107Z,91.20
2019-05-25T04:40:23.081Z,91.16
2019-05-25T04:41:22.094Z,91.05
2019-05-25T04:42:22.175Z,90.64
2019-05-25T04:43:22.230Z,90.23
2019-05-25T04:44:22.052Z,89.92
2019-05-25T04:45:22.075Z,90.03
2019-05-25T04:46:22.101Z,90.23
2019-05-25T04:47:26.931Z,90.23
2019-05-25T04:48:23.007Z,90.34
2019-05-25T04:49:22.000Z,89.92
2019-05-25T04:50:21.987Z,90.03
2019-05-25T04:51:21.976Z,90.64
2019-05-25T04:52:21.996Z,90.23
2019-05-25T04:53:21.960Z,90.75
2019-05-25T04:54:21.955Z,90.84
2019-05-25T04:55:21.938Z,90.34
2019-05-25T04:56:37.899Z,90.44
2019-05-25T04:57:23.065Z,90.19
2019-05-25T04:58:22.076Z,90.13
2019-05-25T04:59:22.202Z,90.30
2019-05-25T05:00:21.885Z,89.58
2019-05-25T05:01:22.753Z,88.76
2019-05-25T05:02:21.892Z,88.35
2019-05-25T05:03:21.851Z,88.86
2019-05-25T05:04:21.846Z,88.92
2019-05-25T05:05:21.833Z,88.51
2019-05-25T05:06:21.823Z,87.90
2019-05-25T05:07:21.832Z,87.45
2019-05-25T05:08:21.799Z,87.04
2019-05-25T05:09:21.784Z,86.63
2019-05-25T05:10:21.773Z,85.50
2019-05-25T05:11:21.766Z,85.10
2019-05-25T05:12:21.778Z,85.71
2019-05-25T05:13:21.739Z,85.67
2019-05-25T05:14:21.730Z,87.20
2019-05-25T05:15:21.748Z,85.16
2019-05-25T05:16:21.719Z,84.85
2019-05-25T05:17:21.723Z,85.22
2019-05-25T05:18:21.704Z,85.53
2019-05-25T05:19:21.678Z,85.22
2019-05-25T05:20:21.665Z,85.12
2019-05-25T05:21:21.652Z,85.12
2019-05-25T05:22:21.665Z,84.61
2019-05-25T05:23:21.632Z,85.02
2019-05-25T05:24:21.615Z,83.89
2019-05-25T05:25:21.607Z,84.09
2019-05-25T05:26:21.598Z,84.41
2019-05-25T05:27:21.611Z,84.20
2019-05-25T05:28:21.576Z,85.28
2019-05-25T05:29:21.560Z,84.16
2019-05-25T05:30:21.547Z,83.54
2019-05-25T05:31:23.784Z,84.06
2019-05-25T05:32:27.666Z,84.06
2019-05-25T05:33:22.519Z,83.75
2019-05-25T05:34:21.506Z,83.24
2019-05-25T05:35:21.495Z,83.65
2019-05-25T05:36:21.485Z,84.20
2019-05-25T05:37:21.499Z,84.20
2019-05-25T05:38:21.463Z,85.53
2019-05-25T05:39:21.451Z,84.91
2019-05-25T05:40:21.449Z,85.12
2019-05-25T05:41:21.432Z,84.91
2019-05-25T05:42:21.448Z,84.61
2019-05-25T05:43:21.415Z,83.48
2019-05-25T05:44:21.395Z,83.48
2019-05-25T05:45:21.386Z,84.09
2019-05-25T05:46:21.375Z,84.00
2019-05-25T05:47:21.392Z,84.16
2019-05-25T05:48:21.351Z,83.54
2019-05-25T05:49:21.341Z,83.44
2019-05-25T05:50:21.337Z,83.85
2019-05-25T05:51:21.321Z,83.00
2019-05-25T05:52:21.348Z,83.40
2019-05-25T05:53:21.303Z,82.39
2019-05-25T05:54:21.288Z,82.53
2019-05-25T05:55:21.275Z,82.39
2019-05-25T05:56:21.267Z,81.77
2019-05-25T05:57:21.255Z,81.98
2019-05-25T05:58:21.275Z,82.59
2019-05-25T05:59:21.231Z,81.77
2019-05-25T06:00:21.227Z,81.77
2019-05-25T06:01:21.213Z,81.87
2019-05-25T06:02:21.199Z,81.94
2019-05-25T06:03:21.219Z,81.77
2019-05-25T06:04:21.187Z,81.98
2019-05-25T06:05:21.172Z,82.18
2019-05-25T06:06:21.160Z,83.04
2019-05-25T06:07:21.148Z,82.49
2019-05-25T06:08:21.163Z,81.73
2019-05-25T06:09:21.131Z,80.82
2019-05-25T06:10:21.125Z,81.02
2019-05-25T06:11:21.104Z,80.24
2019-05-25T06:12:21.099Z,80.34
2019-05-25T06:13:21.111Z,81.16
2019-05-25T06:14:21.077Z,81.67
2019-05-25T06:15:21.062Z,81.77
2019-05-25T06:16:21.050Z,80.91
2019-05-25T06:17:21.045Z,80.71
2019-05-25T06:18:21.062Z,80.27
2019-05-25T06:19:21.021Z,79.96
2019-05-25T06:20:21.011Z,80.16
2019-05-25T06:21:20.998Z,80.27
2019-05-25T06:22:20.989Z,81.49
2019-05-25T06:23:21.004Z,81.80
2019-05-25T06:24:20.962Z,79.04
2019-05-25T06:25:20.958Z,79.66
2019-05-25T06:26:20.942Z,79.55
2019-05-25T06:27:27.488Z,79.80
2019-05-25T06:28:22.596Z,80.41
2019-05-25T06:29:20.913Z,80.61
2019-05-25T06:30:20.897Z,80.61
2019-05-25T06:31:20.888Z,80.41
2019-05-25T06:32:20.880Z,79.86
2019-05-25T06:33:20.893Z,78.53
2019-05-25T06:34:20.857Z,79.04
2019-05-25T06:35:20.866Z,79.35
2019-05-25T06:36:20.836Z,79.90
2019-05-25T06:37:20.827Z,78.88
2019-05-25T06:38:20.840Z,78.47
2019-05-25T06:39:20.835Z,78.57
2019-05-25T06:40:20.791Z,79.08
2019-05-25T06:41:20.784Z,78.77
2019-05-25T06:42:20.767Z,79.12
2019-05-25T06:43:20.784Z,80.00
2019-05-25T06:44:20.743Z,80.07
2019-05-25T06:45:20.737Z,79.55
2019-05-25T06:46:20.723Z,79.32
2019-05-25T06:47:20.713Z,78.74
2019-05-25T06:48:20.735Z,77.21
2019-05-25T06:49:20.696Z,78.64
2019-05-25T06:50:20.683Z,78.19
2019-05-25T06:51:20.669Z,77.55
2019-05-25T06:52:20.659Z,76.73
2019-05-25T06:53:20.675Z,77.75
2019-05-25T06:54:20.641Z,77.44
2019-05-25T06:55:20.626Z,77.30
2019-05-25T06:56:20.616Z,75.67
2019-05-25T06:57:20.606Z,75.98
2019-05-25T06:58:20.619Z,75.98
2019-05-25T06:59:20.588Z,75.43
2019-05-25T07:00:20.580Z,74.45
2019-05-25T07:01:20.564Z,75.47
2019-05-25T07:02:22.578Z,75.88
2019-05-25T07:03:20.570Z,75.37
2019-05-25T07:04:20.531Z,75.95
2019-05-25T07:05:20.537Z,75.13
2019-05-25T07:06:20.508Z,74.69
2019-05-25T07:07:20.495Z,74.08
2019-05-25T07:08:20.525Z,74.48
2019-05-25T07:09:20.475Z,73.74
2019-05-25T07:10:20.466Z,73.54
2019-05-25T07:11:20.454Z,74.99
2019-05-25T07:12:20.446Z,75.13
2019-05-25T07:13:20.472Z,75.50
2019-05-25T07:14:20.419Z,75.09
2019-05-25T07:15:20.413Z,74.45
2019-05-25T07:16:20.398Z,73.43
2019-05-25T07:17:20.392Z,73.91
2019-05-25T07:18:20.605Z,72.38
2019-05-25T07:19:20.372Z,72.45
2019-05-25T07:20:20.357Z,71.73
2019-05-25T07:21:20.344Z,70.72
2019-05-25T07:22:20.335Z,71.53
2019-05-25T07:23:20.350Z,70.86
2019-05-25T07:24:20.313Z,72.04
2019-05-25T07:25:20.648Z,70.82
2019-05-25T07:26:20.287Z,70.89
2019-05-25T07:27:20.279Z,70.45
2019-05-25T07:28:20.297Z,68.93
2019-05-25T07:29:20.265Z,69.03
2019-05-25T07:30:20.256Z,67.30
2019-05-25T07:31:20.235Z,68.32
2019-05-25T07:32:20.226Z,68.62
2019-05-25T07:33:20.248Z,68.32
2019-05-25T07:34:20.211Z,69.91
2019-05-25T07:35:20.219Z,70.72
2019-05-25T07:36:20.187Z,70.75
2019-05-25T07:37:20.176Z,72.11
2019-05-25T07:38:20.192Z,74.15
2019-05-25T07:39:20.154Z,70.92
2019-05-25T07:40:20.150Z,73.13
2019-05-25T07:41:20.130Z,74.65
2019-05-25T07:42:20.265Z,73.80
2019-05-25T07:43:20.141Z,73.30
2019-05-25T07:44:20.099Z,73.91
2019-05-25T07:45:20.091Z,74.52
2019-05-25T07:46:20.077Z,75.84
2019-05-25T07:47:20.065Z,74.32
2019-05-25T07:48:20.251Z,73.71
2019-05-25T07:49:20.059Z,71.36
2019-05-25T07:50:20.035Z,72.04
2019-05-25T07:51:20.025Z,70.79
2019-05-25T07:52:20.021Z,71.40
2019-05-25T07:53:20.024Z,71.02
2019-05-25T07:54:19.996Z,70.72
2019-05-25T07:55:19.975Z,70.14
2019-05-25T07:56:19.977Z,69.87
2019-05-25T07:57:19.960Z,70.07
2019-05-25T07:58:19.972Z,71.09
2019-05-25T07:59:19.933Z,72.48
2019-05-25T08:00:19.923Z,72.08
2019-05-25T08:01:19.916Z,73.02
2019-05-25T08:02:19.903Z,73.94
2019-05-25T08:03:19.904Z,74.25
2019-05-25T08:04:19.883Z,72.82
2019-05-25T08:05:19.869Z,72.65
2019-05-25T08:06:19.861Z,72.65
2019-05-25T08:07:19.847Z,73.02
2019-05-25T08:08:19.835Z,71.60
2019-05-25T08:09:19.855Z,72.34
2019-05-25T08:10:19.831Z,72.92
2019-05-25T08:11:19.805Z,71.70
2019-05-25T08:12:19.793Z,72.38
2019-05-25T08:13:19.780Z,70.92
2019-05-25T08:14:19.800Z,71.26
2019-05-25T08:15:19.766Z,70.21
2019-05-25T08:16:19.755Z,69.90
2019-05-25T08:17:19.757Z,71.73
2019-05-25T08:18:19.722Z,69.57
2019-05-25T08:19:19.744Z,70.10
2019-05-25T08:20:19.708Z,69.26
2019-05-25T08:21:19.691Z,69.19
2019-05-25T08:22:19.706Z,69.57
2019-05-25T08:23:19.681Z,69.16
2019-05-25T08:24:19.687Z,67.91
2019-05-25T08:25:19.650Z,67.91
2019-05-25T08:26:19.641Z,67.50
2019-05-25T08:27:19.627Z,67.60
2019-05-25T08:28:32.155Z,68.32
2019-05-25T08:29:20.636Z,68.92
2019-05-25T08:30:19.596Z,67.40
2019-05-25T08:31:19.587Z,67.63
2019-05-25T08:32:19.768Z,68.14
2019-05-25T08:33:19.563Z,67.53
2019-05-25T08:34:19.585Z,67.63
2019-05-25T08:35:19.540Z,67.71
2019-05-25T08:36:19.533Z,68.21
2019-05-25T08:37:19.525Z,67.50
2019-05-25T08:38:19.517Z,67.77
2019-05-25T08:39:19.527Z,67.67
2019-05-25T08:40:19.490Z,67.13
2019-05-25T08:41:19.477Z,67.03
2019-05-25T08:42:19.467Z,66.46
2019-05-25T08:43:19.456Z,65.39
2019-05-25T08:44:19.471Z,62.92
2019-05-25T08:45:19.440Z,62.62
2019-05-25T08:46:19.425Z,64.20
2019-05-25T08:47:19.416Z,64.53
2019-05-25T08:48:19.403Z,64.40
2019-05-25T08:49:19.415Z,63.72
2019-05-25T08:50:19.381Z,64.53
2019-05-25T08:51:19.367Z,65.24
2019-05-25T08:52:19.363Z,65.42
2019-05-25T08:53:23.232Z,64.88
2019-05-25T08:54:20.361Z,63.23
2019-05-25T08:55:19.327Z,62.89
2019-05-25T08:56:19.314Z,63.86
2019-05-25T08:57:19.308Z,65.11
2019-05-25T08:58:19.292Z,65.37
2019-05-25T08:59:19.311Z,64.94
2019-05-25T09:00:19.268Z,64.73
2019-05-25T09:01:19.264Z,61.66
2019-05-25T09:02:19.249Z,60.11
2019-05-25T09:03:19.236Z,59.58
2019-05-25T09:04:19.253Z,57.96
2019-05-25T09:05:19.211Z,54.53
2019-05-25T09:06:19.203Z,49.37
2019-05-25T09:07:19.192Z,47.55
2019-05-25T09:08:19.188Z,47.27
2019-05-25T09:09:19.199Z,49.25
2019-05-25T09:10:19.159Z,51.10
2019-05-25T09:11:19.147Z,54.18
2019-05-25T09:12:19.144Z,57.17
2019-05-25T09:13:19.131Z,58.13
2019-05-25T09:14:19.145Z,60.44
2019-05-25T09:15:19.107Z,60.55
2019-05-25T09:16:19.100Z,61.29
2019-05-25T09:17:19.085Z,62.51
2019-05-25T09:18:19.092Z,60.42
2019-05-25T09:19:19.095Z,58.25
2019-05-25T09:20:19.053Z,53.45
2019-05-25T09:21:19.039Z,51.61
2019-05-25T09:22:19.036Z,49.43
2019-05-25T09:23:19.022Z,47.06
2019-05-25T09:24:19.035Z,48.47
2019-05-25T09:25:19.005Z,46.73
2019-05-25T09:26:18.989Z,46.94
2019-05-25T09:27:18.981Z,47.46
2019-05-25T09:28:18.964Z,50.45
2019-05-25T09:29:18.984Z,49.67
2019-05-25T09:30:18.943Z,52.69
2019-05-25T09:31:18.932Z,51.23
2019-05-25T09:32:18.931Z,51.13
2019-05-25T09:33:18.917Z,50.20
2019-05-25T09:34:18.930Z,51.08
2019-05-25T09:35:18.899Z,52.14
2019-05-25T09:36:18.885Z,47.94
2019-05-25T09:37:18.872Z,50.52
2019-05-25T09:38:18.883Z,52.11
2019-05-25T09:39:18.876Z,53.90
2019-05-25T09:40:18.845Z,53.17
2019-05-25T09:41:18.836Z,53.55
2019-05-25T09:42:18.820Z,51.91
2019-05-25T09:43:18.808Z,54.11
2019-05-25T09:44:18.999Z,55.37
2019-05-25T09:45:18.788Z,54.99
2019-05-25T09:46:18.964Z,52.36
2019-05-25T09:47:18.772Z,50.50
2019-05-25T09:48:18.756Z,49.77
2019-05-25T09:49:18.772Z,48.95
2019-05-25T09:50:18.735Z,44.92
2019-05-25T09:51:18.723Z,46.65
2019-05-25T09:52:18.773Z,49.65
2019-05-25T09:53:18.705Z,49.37
2019-05-25T09:54:18.719Z,46.33
2019-05-25T09:55:18.681Z,44.92
2019-05-25T09:56:18.671Z,47.03
2019-05-25T09:57:18.666Z,46.53
2019-05-25T09:58:18.656Z,46.51
2019-05-25T09:59:20.416Z,48.11
2019-05-25T10:00:18.653Z,50.75
2019-05-25T10:01:18.618Z,53.42
2019-05-25T10:02:18.610Z,54.21
2019-05-25T10:03:18.600Z,53.83
2019-05-25T10:04:18.639Z,51.08
2019-05-25T10:05:18.656Z,50.28
2019-05-25T10:06:18.581Z,47.12
2019-05-25T10:07:18.566Z,46.17
2019-05-25T10:08:18.556Z,44.52
2019-05-25T10:09:18.566Z,45.14
2019-05-25T10:10:18.523Z,46.64
2019-05-25T10:11:18.513Z,47.41
2019-05-25T10:12:18.504Z,48.46
2019-05-25T10:13:18.505Z,49.97
2019-05-25T10:14:18.506Z,47.16
2019-05-25T10:15:18.506Z,46.41
2019-05-25T10:16:18.463Z,45.00
2019-05-25T10:17:18.454Z,42.02
2019-05-25T10:18:18.445Z,41.71
2019-05-25T10:19:18.460Z,43.79
2019-05-25T10:20:18.427Z,41.91
2019-05-25T10:21:18.407Z,41.93
2019-05-25T10:22:18.398Z,43.94
2019-05-25T10:23:18.391Z,46.41
2019-05-25T10:24:18.404Z,47.32
2019-05-25T10:25:18.368Z,45.30
2019-05-25T10:26:18.423Z,42.43
2019-05-25T10:27:18.348Z,40.23
2019-05-25T10:28:18.338Z,42.32
2019-05-25T10:29:18.363Z,44.74
2019-05-25T10:30:18.323Z,45.79
2019-05-25T10:31:18.309Z,47.81
2019-05-25T10:32:18.295Z,49.42
2019-05-25T10:33:21.681Z,49.39
2019-05-25T10:34:18.278Z,49.62
2019-05-25T10:35:18.291Z,46.22
2019-05-25T10:36:18.251Z,45.57
2019-05-25T10:37:18.271Z,47.86
2019-05-25T10:38:18.229Z,46.39
2019-05-25T10:39:18.222Z,46.41
2019-05-25T10:40:18.234Z,47.16
2019-05-25T10:41:18.201Z,47.49
2019-05-25T10:42:18.193Z,48.17
2019-05-25T10:43:18.175Z,47.92
2019-05-25T10:44:18.172Z,46.12
2019-05-25T10:45:18.186Z,46.93
2019-05-25T10:46:18.142Z,45.39
2019-05-25T10:47:18.136Z,46.73
2019-05-25T10:48:18.129Z,49.22
2019-05-25T10:49:18.115Z,48.84
2019-05-25T10:50:18.126Z,47.63
2019-05-25T10:51:18.099Z,46.29
2019-05-25T10:52:18.099Z,44.16
2019-05-25T10:53:18.073Z,41.47
2019-05-25T10:54:18.065Z,40.81
2019-05-25T10:55:18.076Z,41.44
2019-05-25T10:56:18.044Z,39.26
2019-05-25T10:57:18.034Z,38.68
2019-05-25T10:58:18.019Z,40.23
2019-05-25T10:59:18.009Z,40.89
2019-05-25T11:00:18.052Z,40.62
2019-05-25T11:01:17.994Z,38.84
2019-05-25T11:02:17.981Z,37.68
2019-05-25T11:03:17.973Z,36.87
2019-05-25T11:04:17.990Z,40.06
2019-05-25T11:05:17.995Z,40.81
2019-05-25T11:06:17.941Z,40.56
2019-05-25T11:07:17.928Z,43.68
2019-05-25T11:08:17.919Z,40.97
2019-05-25T11:09:17.911Z,39.28
2019-05-25T11:10:17.923Z,36.65
2019-05-25T11:11:17.895Z,36.90
2019-05-25T11:12:17.880Z,38.56
2019-05-25T11:13:17.870Z,39.38
2019-05-25T11:14:17.857Z,42.10
2019-05-25T11:15:17.873Z,41.74
2019-05-25T11:16:17.849Z,42.43
2019-05-25T11:17:17.832Z,43.52
2019-05-25T11:18:17.819Z,45.29
2019-05-25T11:19:17.803Z,44.42
2019-05-25T11:20:17.834Z,43.77
2019-05-25T11:21:17.802Z,43.15
2019-05-25T11:22:17.781Z,41.93
2019-05-25T11:23:17.771Z,43.32
2019-05-25T11:24:17.757Z,43.85
2019-05-25T11:25:17.781Z,45.22
2019-05-25T11:26:17.740Z,47.80
2019-05-25T11:27:17.724Z,46.44
2019-05-25T11:28:17.717Z,47.79
2019-05-25T11:29:17.731Z,48.84
2019-05-25T11:30:17.721Z,49.24
2019-05-25T11:31:17.691Z,50.53
2019-05-25T11:32:17.671Z,49.50
2019-05-25T11:33:17.660Z,49.07
2019-05-25T11:34:17.650Z,47.07
2019-05-25T11:35:17.667Z,47.39
2019-05-25T11:36:17.629Z,48.92
2019-05-25T11:37:17.616Z,49.57
2019-05-25T11:38:17.613Z,50.81
2019-05-25T11:39:17.602Z,48.57
2019-05-25T11:40:17.619Z,49.50
2019-05-25T11:41:17.579Z,50.20
2019-05-25T11:42:17.565Z,48.82
2019-05-25T11:43:17.556Z,49.22
2019-05-25T11:44:17.546Z,50.78
2019-05-25T11:45:17.563Z,50.73
2019-05-25T11:46:17.540Z,48.61
2019-05-25T11:47:17.512Z,49.12
2019-05-25T11:48:17.530Z,49.32
2019-05-25T11:49:22.460Z,47.94
2019-05-25T11:50:18.506Z,46.80
2019-05-25T11:51:17.472Z,47.26
2019-05-25T11:52:17.460Z,47.77
2019-05-25T11:53:17.447Z,47.04
2019-05-25T11:54:17.435Z,47.56
2019-05-25T11:55:17.465Z,49.10
2019-05-25T11:56:17.425Z,49.30
2019-05-25T11:57:17.410Z,50.10
2019-05-25T11:58:17.400Z,50.93
2019-05-25T11:59:17.387Z,50.91
2019-05-25T12:00:24.840Z,50.71
2019-05-25T12:01:18.361Z,51.89
2019-05-25T12:02:17.360Z,51.03
2019-05-25T12:03:17.346Z,50.98
2019-05-25T12:04:17.327Z,52.01
2019-05-25T12:05:17.344Z,51.68
2019-05-25T12:06:17.310Z,52.42
2019-05-25T12:07:17.299Z,49.30
2019-05-25T12:08:17.285Z,49.05
2019-05-25T12:09:17.271Z,48.63
2019-05-25T12:10:17.288Z,47.12
2019-05-25T12:11:17.252Z,49.21
2019-05-25T12:12:17.242Z,48.32
2019-05-25T12:13:17.234Z,48.95
2019-05-25T12:14:17.216Z,47.79
2019-05-25T12:15:17.237Z,48.67
2019-05-25T12:16:17.196Z,50.51
2019-05-25T12:17:17.186Z,49.50
2019-05-25T12:18:17.176Z,49.44
2019-05-25T12:19:17.164Z,51.38
2019-05-25T12:20:17.186Z,52.09
2019-05-25T12:21:17.145Z,52.09
2019-05-25T12:22:17.133Z,53.40
2019-05-25T12:23:17.138Z,52.42
2019-05-25T12:24:17.113Z,52.11
2019-05-25T12:25:17.132Z,53.22
2019-05-25T12:26:17.101Z,50.98
2019-05-25T12:27:17.081Z,51.51
2019-05-25T12:28:17.074Z,49.87
2019-05-25T12:29:17.061Z,51.56
2019-05-25T12:30:17.075Z,50.60
2019-05-25T12:31:17.039Z,48.99
2019-05-25T12:32:17.032Z,49.48
2019-05-25T12:33:17.027Z,49.42
2019-05-25T12:34:17.007Z,51.23
2019-05-25T12:35:17.031Z,51.54
2019-05-25T12:36:16.997Z,51.73
2019-05-25T12:37:16.978Z,51.79
2019-05-25T12:38:16.984Z,51.38
2019-05-25T12:39:16.968Z,51.53
2019-05-25T12:40:16.973Z,51.81
2019-05-25T12:41:16.952Z,52.34
2019-05-25T12:42:16.929Z,49.90
2019-05-25T12:43:16.931Z,49.55
2019-05-25T12:44:16.909Z,49.35
2019-05-25T12:45:16.927Z,49.70
2019-05-25T12:46:16.891Z,48.43
2019-05-25T12:47:16.878Z,47.96
2019-05-25T12:48:16.863Z,45.32
2019-05-25T12:49:16.856Z,45.30
2019-05-25T12:50:16.872Z,44.18
2019-05-25T12:51:17.839Z,45.25
2019-05-25T12:52:16.820Z,45.32